Time;durP1;ratioP1;P1;durP2;ratioP2;P2;SDS_P1;SDS_P2;PMS_P1;PMS_P2;Temp;Humidity;BMP_temperature;BMP_pressure;BME280_temperature;BME280_humidity;BME280_pressure;Samples;Min_cycle;Max_cycle;Signal;HPM_P1;HPM_P2
2022/05/23 00:02:05;;;;;;;6.88;1.80;;;14.30;99.90;;;;;;4989630;28;20035;-41
2022/05/23 00:04:31;;;;;;;6.03;1.75;;;14.30;99.90;;;;;;4998259;28;20046;-41
2022/05/23 00:06:57;;;;;;;3.85;1.27;;;14.30;99.90;;;;;;4974154;28;20051;-41
2022/05/23 00:09:24;;;;;;;4.53;1.65;;;14.30;99.90;;;;;;4988340;28;20077;-41
2022/05/23 00:11:50;;;;;;;4.28;1.92;;;14.20;99.90;;;;;;4989783;28;20136;-41
2022/05/23 00:14:17;;;;;;;5.65;1.55;;;14.20;99.90;;;;;;4973020;28;20482;-41
2022/05/23 00:16:47;;;;;;;4.75;1.80;;;14.20;99.90;;;;;;4960272;28;20840;-41
2022/05/23 00:19:14;;;;;;;5.22;1.73;;;14.10;99.90;;;;;;4987360;28;20050;-41
2022/05/23 00:21:41;;;;;;;2.22;1.42;;;14.10;99.90;;;;;;4989490;28;20100;-42
2022/05/23 00:24:08;;;;;;;5.22;1.50;;;14.00;99.90;;;;;;4997329;28;20042;-41
2022/05/23 00:26:34;;;;;;;5.43;1.80;;;14.00;99.90;;;;;;4975707;28;20111;-42
2022/05/23 00:28:59;;;;;;;5.72;1.88;;;14.00;99.90;;;;;;4987412;28;20050;-41
2022/05/23 00:31:25;;;;;;;5.65;1.70;;;14.00;99.90;;;;;;4989613;28;20053;-41
2022/05/23 00:36:35;;;;;;;4.78;1.60;;;13.90;99.90;;;;;;4975785;28;20070;-41
2022/05/23 00:39:03;;;;;;;4.57;2.10;;;13.90;99.90;;;;;;4987552;28;20038;-41
2022/05/23 00:44:20;;;;;;;3.45;1.70;;;13.80;99.90;;;;;;4982133;28;20128;-41
2022/05/23 00:47:01;;;;;;;4.07;1.67;;;13.80;99.90;;;;;;4974192;28;20112;-41
2022/05/23 00:49:36;;;;;;;5.05;1.98;;;13.80;99.90;;;;;;5002901;28;20511;-41
2022/05/23 00:52:05;;;;;;;6.15;2.10;;;13.80;99.90;;;;;;5007533;28;20050;-41
2022/05/23 00:54:40;;;;;;;5.45;2.30;;;13.70;99.90;;;;;;4994007;28;20047;-41
2022/05/23 00:57:11;;;;;;;5.45;2.20;;;13.70;99.90;;;;;;4973794;28;20405;-41
2022/05/23 00:59:37;;;;;;;6.47;2.47;;;13.70;99.90;;;;;;4987938;28;20136;-42
2022/05/23 01:02:03;;;;;;;8.00;2.55;;;13.70;99.90;;;;;;4971158;28;20058;-41
2022/05/23 01:04:32;;;;;;;7.00;2.35;;;13.60;99.90;;;;;;4990392;28;20533;-41
2022/05/23 01:06:58;;;;;;;7.72;2.80;;;13.60;99.90;;;;;;4977502;28;20135;-41
2022/05/23 01:09:26;;;;;;;6.80;2.53;;;13.60;99.90;;;;;;4995678;28;20058;-41
2022/05/23 01:11:53;;;;;;;8.95;2.25;;;13.50;99.90;;;;;;4993187;28;20061;-41
2022/05/23 01:14:20;;;;;;;7.90;2.70;;;13.50;99.90;;;;;;5006136;28;20046;-41
2022/05/23 01:16:46;;;;;;;5.80;2.70;;;13.50;99.90;;;;;;4985557;28;20050;-41
2022/05/23 01:19:11;;;;;;;5.25;2.83;;;13.40;99.90;;;;;;4990428;28;20093;-41
2022/05/23 01:21:43;;;;;;;7.22;3.13;;;13.30;99.90;;;;;;4990501;28;20625;-42
2022/05/23 01:24:21;;;;;;;;;;;13.40;99.90;;;;;;4974231;28;20050;-42
2022/05/23 01:26:48;;;;;;;6.97;3.47;;;13.30;99.90;;;;;;4975502;28;19921;-42
2022/05/23 01:29:14;;;;;;;9.82;3.50;;;13.30;99.90;;;;;;4991915;28;20061;-42
2022/05/23 01:31:41;;;;;;;9.02;3.38;;;13.20;99.90;;;;;;4992131;28;20062;-42
2022/05/23 01:34:08;;;;;;;9.70;3.67;;;13.20;99.90;;;;;;4990161;28;20043;-42
2022/05/23 01:36:34;;;;;;;7.60;3.30;;;13.20;99.90;;;;;;4977412;28;20058;-42
2022/05/23 01:38:59;;;;;;;6.97;3.30;;;13.10;99.90;;;;;;4990438;28;20734;-42
2022/05/23 01:41:25;;;;;;;6.90;3.05;;;13.10;99.90;;;;;;4984059;28;20051;-42
2022/05/23 01:43:52;;;;;;;6.25;2.90;;;13.10;99.90;;;;;;4990834;28;20042;-42
2022/05/23 01:46:18;;;;;;;7.90;3.05;;;13.10;99.90;;;;;;4979920;28;20053;-42
2022/05/23 01:48:43;;;;;;;5.78;3.28;;;13.00;99.90;;;;;;4994330;28;20520;-42
2022/05/23 01:51:09;;;;;;;5.65;3.28;;;13.10;99.90;;;;;;4991970;28;20089;-42
2022/05/23 01:53:35;;;;;;;9.32;3.17;;;12.90;99.90;;;;;;4990379;28;20254;-42
2022/05/23 01:56:05;;;;;;;6.20;3.13;;;13.00;99.90;;;;;;4990548;28;20054;-42
2022/05/23 02:01:16;;;;;;;7.72;3.67;;;12.90;99.90;;;;;;4992019;28;20173;-42
2022/05/23 02:03:44;;;;;;;8.40;3.20;;;12.90;99.90;;;;;;4994537;28;20049;-42
2022/05/23 02:06:10;;;;;;;6.55;3.25;;;12.80;99.90;;;;;;4983924;28;20049;-43
2022/05/23 02:08:38;;;;;;;6.03;3.40;;;12.80;99.90;;;;;;4987473;28;20133;-42
2022/05/23 02:11:06;;;;;;;6.15;3.60;;;12.70;99.90;;;;;;4994419;28;20125;-42
2022/05/23 02:13:38;;;;;;;9.10;3.70;;;12.80;99.90;;;;;;5002628;28;20069;-42
2022/05/23 02:16:05;;;;;;;7.50;3.78;;;12.80;99.90;;;;;;5001339;28;20137;-42
2022/05/23 02:18:31;;;;;;;6.70;3.70;;;12.80;99.90;;;;;;4968305;28;20406;-42
2022/05/23 02:20:57;;;;;;;8.57;3.70;;;12.90;99.90;;;;;;4970909;28;20054;-42
2022/05/23 02:23:23;;;;;;;5.97;3.60;;;12.90;99.90;;;;;;4981716;28;20054;-42
2022/05/23 02:25:49;;;;;;;7.38;3.60;;;12.90;99.90;;;;;;4988142;28;20046;-42
2022/05/23 02:28:15;;;;;;;10.93;4.00;;;12.90;99.90;;;;;;4975331;28;20520;-42
2022/05/23 02:30:40;;;;;;;8.25;3.47;;;12.90;99.90;;;;;;4991542;28;20042;-42
2022/05/23 02:33:06;;;;;;;6.70;3.97;;;12.90;99.90;;;;;;4990705;28;20077;-42
2022/05/23 02:35:32;;;;;;;5.25;3.75;;;12.80;99.90;;;;;;4991235;28;20045;-42
2022/05/23 02:37:58;;;;;;;6.43;3.55;;;12.80;99.90;;;;;;4975455;28;20424;-42
2022/05/23 02:40:23;;;;;;;6.18;4.00;;;12.80;99.90;;;;;;4990076;28;20078;-41
2022/05/23 02:42:49;;;;;;;8.73;3.92;;;12.80;99.90;;;;;;4979865;28;20047;-42
2022/05/23 02:45:15;;;;;;;5.47;3.80;;;12.80;99.90;;;;;;4991395;28;20208;-42
2022/05/23 02:47:43;;;;;;;7.47;3.90;;;12.80;99.90;;;;;;4972746;28;20066;-41
2022/05/23 02:50:11;;;;;;;8.40;3.60;;;12.80;99.90;;;;;;4991140;28;20117;-42
2022/05/23 02:52:38;;;;;;;8.05;3.70;;;12.80;99.90;;;;;;4990545;28;20047;-42
2022/05/23 02:55:04;;;;;;;6.78;4.05;;;12.80;99.90;;;;;;4990486;28;20058;-42
2022/05/23 02:57:30;;;;;;;6.82;4.50;;;12.80;99.90;;;;;;4974518;28;20046;-43
2022/05/23 02:59:56;;;;;;;7.70;3.90;;;12.80;99.90;;;;;;4990572;28;20093;-42
2022/05/23 03:05:07;;;;;;;7.90;4.18;;;12.80;99.90;;;;;;4990663;28;20520;-42
2022/05/23 03:07:33;;;;;;;10.35;3.90;;;12.80;99.90;;;;;;4974456;28;20085;-42
2022/05/23 03:09:58;;;;;;;5.78;4.10;;;12.80;99.90;;;;;;4994256;28;20089;-42
2022/05/23 03:12:26;;;;;;;6.82;4.03;;;12.70;99.90;;;;;;4992643;28;20049;-42
2022/05/23 03:14:52;;;;;;;7.88;4.35;;;12.70;99.90;;;;;;5010254;28;20038;-42
2022/05/23 03:17:18;;;;;;;9.63;4.35;;;12.70;99.90;;;;;;4977760;28;20093;-42
2022/05/23 03:19:44;;;;;;;9.55;4.20;;;12.70;99.90;;;;;;4988299;28;20085;-42
2022/05/23 03:27:40;;;;;;;8.45;4.53;;;12.60;99.90;;;;;;4973842;28;20177;-42
2022/05/23 03:30:07;;;;;;;9.88;4.82;;;12.60;99.90;;;;;;4975970;28;20137;-42
2022/05/23 03:32:34;;;;;;;7.95;4.65;;;12.60;99.90;;;;;;4974271;28;20240;-42
2022/05/23 03:35:00;;;;;;;8.20;4.75;;;12.60;99.90;;;;;;4988564;28;20050;-42
2022/05/23 03:37:26;;;;;;;11.30;5.13;;;12.60;99.90;;;;;;4975253;28;20062;-42
2022/05/23 03:39:51;;;;;;;6.80;4.53;;;12.60;99.90;;;;;;4989343;28;20050;-42
2022/05/23 03:42:17;;;;;;;9.52;5.13;;;12.60;99.90;;;;;;4988142;28;20054;-42
2022/05/23 03:44:43;;;;;;;8.40;5.35;;;12.60;99.90;;;;;;4990161;28;20062;-42
2022/05/23 03:47:09;;;;;;;8.25;5.13;;;12.60;99.90;;;;;;4974079;28;20058;-42
2022/05/23 03:49:35;;;;;;;8.00;4.85;;;12.60;99.90;;;;;;4989916;28;20077;-42
2022/05/23 03:52:01;;;;;;;9.27;5.05;;;12.60;99.90;;;;;;4989567;28;20058;-42
2022/05/23 03:54:27;;;;;;;8.57;4.60;;;12.60;99.90;;;;;;4988937;28;20101;-42
2022/05/23 03:56:58;;;;;;;9.82;4.80;;;12.60;99.90;;;;;;4973527;28;20093;-42
2022/05/23 03:59:24;;;;;;;;;;;12.60;99.90;;;;;;4989562;28;20054;-42
2022/05/23 04:01:52;;;;;;;9.52;5.07;;;12.60;99.90;;;;;;4990392;28;19940;-42
2022/05/23 04:04:17;;;;;;;8.50;4.90;;;12.60;99.90;;;;;;4974232;28;20046;-41
2022/05/23 04:06:43;;;;;;;8.90;4.78;;;12.70;99.90;;;;;;4956800;28;20063;-42
2022/05/23 04:09:09;;;;;;;7.53;4.60;;;12.70;99.90;;;;;;4990118;28;20064;-42
2022/05/23 04:11:35;;;;;;;8.75;4.88;;;12.70;99.90;;;;;;4989699;28;20081;-42
2022/05/23 04:14:00;;;;;;;8.90;4.88;;;12.90;99.90;;;;;;4988479;28;20133;-42
2022/05/23 04:16:29;;;;;;;10.30;4.78;;;12.80;99.90;;;;;;4977728;28;20556;-42
2022/05/23 04:18:55;;;;;;;11.15;4.97;;;12.80;99.90;;;;;;5002463;28;20045;-42
2022/05/23 04:21:21;;;;;;;9.10;4.47;;;12.80;99.90;;;;;;4987613;28;20053;-42
2022/05/23 04:23:47;;;;;;;8.65;5.10;;;12.80;99.90;;;;;;4989137;28;20542;-42
2022/05/23 04:26:12;;;;;;;6.35;4.90;;;12.80;99.90;;;;;;4973837;28;20107;-42
2022/05/23 04:28:41;;;;;;;9.43;5.50;;;12.90;99.90;;;;;;4979272;28;20061;-42
2022/05/23 04:31:08;;;;;;;10.60;4.80;;;12.90;99.90;;;;;;4971862;28;20089;-42
2022/05/23 04:36:17;;;;;;;9.23;4.57;;;12.90;99.90;;;;;;4978635;28;20441;-42
2022/05/23 04:38:43;;;;;;;11.75;5.15;;;12.80;99.90;;;;;;4985763;28;20050;-41
2022/05/23 04:41:09;;;;;;;8.38;4.90;;;13.00;99.90;;;;;;4986338;28;20094;-42
2022/05/23 04:43:35;;;;;;;10.63;4.78;;;13.00;99.90;;;;;;4988541;28;20050;-42
2022/05/23 04:46:01;;;;;;;9.15;4.25;;;13.00;99.90;;;;;;4991598;28;20046;-41
2022/05/23 04:51:11;;;;;;;7.72;4.47;;;13.10;99.90;;;;;;4993447;28;20101;-42
2022/05/23 04:53:36;;;;;;;7.40;3.90;;;13.10;99.90;;;;;;5002180;28;20058;-41
2022/05/23 04:56:02;;;;;;;8.38;4.18;;;13.10;99.90;;;;;;4992694;28;20046;-42
2022/05/23 04:58:28;;;;;;;7.45;3.80;;;13.20;99.90;;;;;;4965636;28;20117;-42
2022/05/23 05:00:54;;;;;;;7.85;3.85;;;13.30;99.90;;;;;;4973909;28;20070;-42
2022/05/23 05:03:20;;;;;;;9.40;4.72;;;13.30;99.90;;;;;;4981369;28;20554;-42
2022/05/23 05:05:46;;;;;;;7.15;4.50;;;13.40;99.90;;;;;;4993381;28;20085;-42
2022/05/23 05:08:12;;;;;;;8.40;4.60;;;13.40;99.90;;;;;;4968358;28;20533;-42
2022/05/23 05:10:38;;;;;;;9.23;4.55;;;13.50;99.90;;;;;;4973047;28;20055;-42
2022/05/23 05:13:04;;;;;;;6.05;4.18;;;13.60;99.90;;;;;;4963271;28;20108;-42
2022/05/23 05:15:30;;;;;;;8.52;4.20;;;13.70;99.90;;;;;;4992604;28;20042;-42
2022/05/23 05:17:57;;;;;;;7.93;4.57;;;13.80;99.90;;;;;;4977082;28;20065;-42
2022/05/23 05:20:23;;;;;;;12.00;4.82;;;13.80;99.90;;;;;;5005829;28;20057;-41
2022/05/23 05:22:50;;;;;;;8.88;4.63;;;14.00;99.90;;;;;;4999727;28;20104;-42
2022/05/23 05:25:17;;;;;;;10.27;4.72;;;14.10;99.90;;;;;;4983559;28;20055;-42
2022/05/23 05:27:43;;;;;;;9.60;5.05;;;14.10;99.90;;;;;;4975625;28;20051;-42
2022/05/23 05:30:11;;;;;;;8.85;4.95;;;14.20;99.90;;;;;;4989833;28;20050;-42
2022/05/23 05:32:58;;;;;;;5.95;4.22;;;14.20;99.90;;;;;;4991616;28;20149;-42
2022/05/23 05:35:40;;;;;;;9.60;4.80;;;14.30;99.90;;;;;;4992386;28;20251;-42
2022/05/23 05:38:13;;;;;;;;;;;14.40;99.90;;;;;;4978054;28;20290;-42
2022/05/23 05:40:41;;;;;;;10.30;4.82;;;14.40;99.90;;;;;;4988541;28;19926;-42
2022/05/23 05:43:32;;;;;;;9.90;4.78;;;14.50;99.90;;;;;;4985040;28;20505;-42
2022/05/23 05:46:02;;;;;;;9.73;4.40;;;14.50;99.90;;;;;;4988441;28;20058;-42
2022/05/23 05:48:28;;;;;;;8.63;4.88;;;14.60;99.90;;;;;;4976233;28;20038;-42
2022/05/23 05:50:54;;;;;;;9.05;4.80;;;14.60;99.90;;;;;;4990037;28;20049;-42
2022/05/23 05:53:31;;;;;;;7.88;4.50;;;14.60;99.90;;;;;;4991818;28;20128;-42
2022/05/23 05:55:59;;;;;;;12.90;5.32;;;14.70;99.90;;;;;;4999189;28;20046;-42
2022/05/23 05:58:25;;;;;;;7.18;4.60;;;14.80;99.90;;;;;;4975739;28;20112;-42
2022/05/23 06:00:50;;;;;;;11.60;5.22;;;14.80;99.90;;;;;;4991407;28;20082;-42
2022/05/23 06:03:16;;;;;;;8.70;4.90;;;14.90;99.90;;;;;;4994516;28;20041;-42
2022/05/23 06:11:26;;;;;;;11.18;4.97;;;15.10;99.90;;;;;;5001691;28;20370;-42
2022/05/23 06:13:55;;;;;;;13.27;5.70;;;15.30;99.90;;;;;;4998596;28;20121;-42
2022/05/23 06:16:23;;;;;;;8.27;4.50;;;15.30;99.90;;;;;;4993304;28;20096;-42
2022/05/23 06:18:49;;;;;;;8.95;5.25;;;15.50;99.90;;;;;;4986371;28;20535;-43
2022/05/23 06:21:15;;;;;;;8.70;5.28;;;15.60;99.90;;;;;;4988478;28;20081;-42
2022/05/23 06:23:42;;;;;;;8.80;4.63;;;15.60;99.90;;;;;;4978067;28;20050;-43
2022/05/23 06:26:08;;;;;;;12.43;5.68;;;15.70;99.90;;;;;;4967059;28;20053;-43
2022/05/23 06:28:37;;;;;;;10.95;5.20;;;15.80;99.90;;;;;;4973182;28;20038;-42
2022/05/23 06:31:03;;;;;;;7.75;4.90;;;15.90;99.90;;;;;;4990458;28;20401;-42
2022/05/23 06:33:29;;;;;;;9.95;4.90;;;16.00;99.90;;;;;;4988585;28;20042;-43
2022/05/23 06:35:55;;;;;;;9.32;5.07;;;16.10;99.90;;;;;;4989849;28;20046;-43
2022/05/23 06:38:22;;;;;;;9.40;5.00;;;16.20;99.90;;;;;;4975831;28;20046;-43
2022/05/23 06:40:50;;;;;;;9.50;4.50;;;16.30;99.90;;;;;;4986400;28;20062;-42
2022/05/23 06:43:16;;;;;;;9.73;4.97;;;16.30;99.90;;;;;;4984355;28;20062;-42
2022/05/23 06:45:42;;;;;;;9.95;5.28;;;16.30;99.90;;;;;;4989586;28;20662;-43
2022/05/23 06:48:08;;;;;;;7.35;4.50;;;16.40;99.90;;;;;;4974753;28;20467;-43
2022/05/23 06:50:34;;;;;;;10.07;4.57;;;16.40;99.90;;;;;;4991443;28;20514;-43
2022/05/23 06:53:00;;;;;;;7.05;4.63;;;16.50;99.90;;;;;;4989903;28;20073;-43
2022/05/23 06:55:25;;;;;;;8.90;5.03;;;16.60;99.90;;;;;;4996159;28;20061;-43
2022/05/23 06:57:51;;;;;;;6.95;4.60;;;16.60;99.90;;;;;;4973232;28;20149;-43
2022/05/23 07:00:18;;;;;;;6.88;4.47;;;16.70;99.90;;;;;;4990288;28;20046;-42
2022/05/23 07:02:44;;;;;;;8.50;5.47;;;16.70;99.90;;;;;;4995365;28;20046;-43
2022/05/23 07:13:24;;;;;;;9.32;5.18;;;16.80;99.90;;;;;;4989951;28;20076;-43
2022/05/23 07:15:50;;;;;;;6.47;4.18;;;16.80;99.90;;;;;;4989877;28;20046;-42
2022/05/23 07:18:18;;;;;;;10.93;4.85;;;16.80;99.90;;;;;;4984454;28;20057;-42
2022/05/23 07:20:44;;;;;;;8.25;5.03;;;16.90;99.90;;;;;;4992894;28;20108;-42
2022/05/23 07:23:11;;;;;;;10.43;4.78;;;16.90;99.90;;;;;;4988403;28;20054;-42
2022/05/23 07:25:37;;;;;;;17.95;5.03;;;17.00;99.90;;;;;;4988068;28;20055;-42
2022/05/23 07:28:04;;;;;;;8.88;4.75;;;17.00;99.90;;;;;;4973856;28;20050;-42
2022/05/23 07:30:29;;;;;;;7.78;4.78;;;17.10;99.90;;;;;;4989212;28;20042;-42
2022/05/23 07:32:57;;;;;;;8.38;4.75;;;17.10;99.90;;;;;;4989698;28;20182;-42
2022/05/23 07:35:23;;;;;;;7.25;4.55;;;17.20;99.90;;;;;;4990330;28;20058;-42
2022/05/23 07:37:49;;;;;;;7.18;4.90;;;17.20;99.90;;;;;;4974450;28;20046;-42
2022/05/23 07:40:15;;;;;;;11.15;5.18;;;17.30;99.90;;;;;;4990115;28;20054;-41
2022/05/23 07:42:42;;;;;;;5.72;4.53;;;17.30;99.90;;;;;;4979708;28;20039;-42
2022/05/23 07:45:08;;;;;;;9.23;4.60;;;17.40;99.90;;;;;;4990154;28;20104;-42
2022/05/23 07:47:34;;;;;;;9.55;4.97;;;17.40;99.90;;;;;;4978221;28;20049;-42
2022/05/23 07:50:00;;;;;;;9.32;5.07;;;17.50;99.90;;;;;;4992501;28;20069;-42
2022/05/23 07:52:26;;;;;;;5.97;4.78;;;17.50;99.90;;;;;;4989491;28;20077;-42
2022/05/23 08:00:33;;;;;;;6.75;4.70;;;17.70;99.90;;;;;;4983105;28;20054;-42
2022/05/23 08:02:59;;;;;;;8.18;4.57;;;17.80;99.90;;;;;;4989308;28;20413;-42
2022/05/23 08:05:25;;;;;;;7.25;4.72;;;17.80;99.90;;;;;;4988551;28;20093;-42
2022/05/23 08:07:51;;;;;;;7.95;5.00;;;17.90;99.90;;;;;;4973665;28;20684;-42
2022/05/23 08:10:17;;;;;;;6.57;4.60;;;18.00;99.90;;;;;;4992882;28;20058;-42
2022/05/23 08:12:48;;;;;;;9.95;5.28;;;18.00;99.90;;;;;;4994611;28;20099;-42
2022/05/23 08:15:14;;;;;;;6.60;5.20;;;18.10;99.90;;;;;;5013702;28;20595;-42
2022/05/23 08:17:40;;;;;;;11.13;4.95;;;18.20;99.90;;;;;;4978500;28;20125;-42
2022/05/23 08:20:06;;;;;;;8.00;5.20;;;18.20;99.90;;;;;;4994078;28;20046;-42
2022/05/23 08:22:32;;;;;;;8.35;5.28;;;18.30;99.90;;;;;;4992359;28;20046;-42
2022/05/23 08:24:58;;;;;;;7.15;5.00;;;18.30;99.90;;;;;;4993180;28;20521;-42
2022/05/23 08:27:24;;;;;;;10.35;5.32;;;18.40;99.90;;;;;;4975968;28;20050;-42
2022/05/23 08:29:52;;;;;;;8.82;5.05;;;18.50;99.90;;;;;;4976673;28;20046;-42
2022/05/23 08:32:18;;;;;;;8.32;4.95;;;18.50;99.90;;;;;;4971485;28;20178;-42
2022/05/23 08:34:44;;;;;;;8.20;4.97;;;18.60;99.90;;;;;;4973905;28;20046;-42
2022/05/23 08:37:10;;;;;;;10.10;5.05;;;18.70;99.90;;;;;;4959162;28;20053;-42
2022/05/23 08:39:36;;;;;;;8.98;5.30;;;18.80;99.90;;;;;;4973806;28;20051;-41
2022/05/23 08:42:32;;;;;;;10.45;6.18;;;18.80;99.90;;;;;;4956131;28;20053;-42
2022/05/23 08:45:10;;;;;;;9.73;5.72;;;18.90;99.90;;;;;;4967117;28;20101;-41
2022/05/23 08:47:41;;;;;;;11.40;6.18;;;19.00;99.90;;;;;;4957559;28;20053;-42
2022/05/23 08:50:36;;;;;;;10.70;6.35;;;19.00;99.90;;;;;;4972502;28;20054;-42
2022/05/23 08:53:27;;;;;;;9.63;5.30;;;19.00;99.90;;;;;;4980088;28;20057;-42
2022/05/23 08:55:58;;;;;;;9.57;5.60;;;19.10;99.90;;;;;;4970986;28;20495;-42
2022/05/23 08:58:53;;;;;;;;;;;19.20;99.90;;;;;;4958317;28;20050;-42
2022/05/23 09:01:23;;;;;;;10.68;5.47;;;19.30;99.90;;;;;;4994768;28;19925;-42
2022/05/23 09:04:02;;;;;;;12.60;5.93;;;19.40;99.90;;;;;;4972846;28;20054;-42
2022/05/23 09:06:31;;;;;;;10.15;6.65;;;19.50;99.90;;;;;;4952492;28;20456;-42
2022/05/23 09:09:08;;;;;;;8.15;6.28;;;19.50;99.90;;;;;;4985815;28;20109;-42
2022/05/23 09:11:41;;;;;;;11.05;6.22;;;19.60;99.90;;;;;;4993293;28;20057;-42
2022/05/23 09:14:09;;;;;;;11.02;5.90;;;19.70;99.90;;;;;;4991974;28;20042;-42
2022/05/23 09:16:51;;;;;;;13.25;6.00;;;19.80;99.90;;;;;;4977554;28;20046;-43
2022/05/23 09:19:48;;;;;;;10.52;6.43;;;19.80;99.90;;;;;;4991985;28;20050;-42
2022/05/23 09:22:34;;;;;;;8.23;6.05;;;19.90;99.90;;;;;;4991732;28;20062;-42
2022/05/23 09:25:05;;;;;;;9.65;6.45;;;20.00;99.90;;;;;;4997538;28;20149;-42
2022/05/23 09:27:30;;;;;;;8.38;5.97;;;20.00;99.90;;;;;;4983202;28;20052;-42
2022/05/23 09:29:58;;;;;;;10.45;6.38;;;20.00;99.90;;;;;;4998773;28;20054;-42
2022/05/23 09:32:32;;;;;;;13.20;6.80;;;20.10;99.90;;;;;;5006728;28;20050;-42
2022/05/23 09:35:00;;;;;;;10.20;6.22;;;20.20;99.90;;;;;;4991136;28;20564;-42
2022/05/23 09:37:35;;;;;;;10.05;6.53;;;20.30;99.90;;;;;;4976563;28;20077;-42
2022/05/23 09:40:01;;;;;;;10.40;6.50;;;20.30;99.90;;;;;;4987469;28;20034;-42
2022/05/23 09:48:18;;;;;;;8.68;6.35;;;20.40;99.90;;;;;;4955356;28;20039;-43
2022/05/23 09:50:51;;;;;;;10.30;6.10;;;20.40;99.90;;;;;;4971854;28;20525;-43
2022/05/23 09:53:24;;;;;;;8.70;6.57;;;20.50;99.90;;;;;;4970855;28;20051;-43
2022/05/23 09:55:51;;;;;;;7.43;6.05;;;20.60;99.90;;;;;;4972025;28;20548;-44
2022/05/23 09:58:28;;;;;;;8.45;5.88;;;20.70;99.90;;;;;;4955074;28;20137;-45
2022/05/23 10:00:59;;;;;;;11.98;6.07;;;20.70;99.90;;;;;;4971004;28;20133;-44
2022/05/23 10:03:29;;;;;;;11.23;5.50;;;20.80;99.90;;;;;;4970295;28;20043;-43
2022/05/23 10:06:06;;;;;;;10.70;5.65;;;20.90;99.90;;;;;;4970827;28;20494;-43
2022/05/23 10:08:39;;;;;;;7.22;5.47;;;21.00;99.90;;;;;;4956816;28;20073;-43
2022/05/23 10:11:24;;;;;;;9.48;5.60;;;21.00;99.90;;;;;;4967148;28;20050;-43
2022/05/23 10:13:54;;;;;;;7.25;5.47;;;21.10;99.90;;;;;;4943640;28;20055;-43
2022/05/23 10:16:32;;;;;;;11.15;5.30;;;21.20;99.90;;;;;;4931874;28;20047;-43
2022/05/23 10:19:01;;;;;;;9.55;4.53;;;21.20;99.90;;;;;;4936581;28;20197;-43
2022/05/23 10:21:35;;;;;;;8.02;4.25;;;21.30;99.90;;;;;;4940984;28;20173;-43
2022/05/23 10:24:05;;;;;;;5.80;4.05;;;21.40;99.90;;;;;;4936342;28;20058;-43
2022/05/23 10:26:40;;;;;;;7.72;3.83;;;21.50;99.90;;;;;;4937037;28;20051;-43
2022/05/23 10:29:14;;;;;;;10.57;4.35;;;21.50;99.90;;;;;;4942036;28;20047;-43
2022/05/23 10:31:47;;;;;;;7.63;4.05;;;21.70;99.90;;;;;;4940022;28;20490;-43
2022/05/23 10:34:37;;;;;;;9.27;4.10;;;21.80;99.90;;;;;;4946446;28;20415;-42
2022/05/23 10:37:07;;;;;;;8.23;3.88;;;21.90;99.90;;;;;;4935266;28;20623;-41
2022/05/23 10:42:22;;;;;;;7.07;3.83;;;22.20;99.90;;;;;;4939668;28;20264;-42
2022/05/23 10:45:20;;;;;;;8.23;3.63;;;22.40;99.90;;;;;;4937131;28;20062;-42
2022/05/23 10:47:59;;;;;;;6.40;3.08;;;22.50;99.90;;;;;;4922759;28;21835;-42
2022/05/23 10:50:44;;;;;;;6.25;3.40;;;22.60;99.90;;;;;;4942656;28;20578;-42
2022/05/23 10:53:18;;;;;;;6.43;2.70;;;22.70;99.90;;;;;;4939083;28;20800;-43
2022/05/23 10:55:54;;;;;;;8.40;3.00;;;22.70;99.90;;;;;;4938689;28;20039;-42
2022/05/23 10:58:36;;;;;;;5.32;2.72;;;22.80;99.90;;;;;;4933154;28;20050;-42
2022/05/23 11:01:20;;;;;;;7.05;3.03;;;22.80;99.90;;;;;;4943522;28;20101;-43
2022/05/23 11:04:10;;;;;;;4.70;2.72;;;22.90;99.90;;;;;;4933150;28;20051;-42
2022/05/23 11:06:58;;;;;;;5.63;2.88;;;23.00;99.90;;;;;;4926817;28;20152;-42
2022/05/23 11:09:39;;;;;;;7.53;2.88;;;23.10;99.90;;;;;;4935537;28;20500;-42
2022/05/23 11:12:18;;;;;;;5.00;3.05;;;23.10;99.90;;;;;;4935166;28;20050;-43
2022/05/23 11:15:12;;;;;;;6.95;2.60;;;23.20;99.90;;;;;;4942728;28;20063;-42
2022/05/23 11:17:48;;;;;;;8.40;2.20;;;23.20;99.90;;;;;;4920560;28;20093;-42
2022/05/23 11:20:33;;;;;;;4.80;2.45;;;23.20;99.90;;;;;;4944038;28;20054;-43
2022/05/23 11:23:29;;;;;;;3.47;2.38;;;23.30;99.90;;;;;;4937986;28;20074;-42
2022/05/23 11:26:06;;;;;;;4.53;2.67;;;23.40;99.90;;;;;;4949349;28;20055;-42
2022/05/23 11:35:02;;;;;;;5.55;2.80;;;23.60;99.90;;;;;;4945888;28;20061;-42
2022/05/23 11:37:49;;;;;;;9.23;2.58;;;23.70;99.90;;;;;;4924681;28;20054;-43
2022/05/23 11:40:30;;;;;;;5.47;2.30;;;23.70;99.90;;;;;;4938202;28;20051;-43
2022/05/23 11:43:08;;;;;;;4.72;2.10;;;23.70;99.90;;;;;;4935407;28;20222;-44
2022/05/23 11:46:00;;;;;;;4.43;2.30;;;23.80;99.90;;;;;;4950107;28;20405;-44
2022/05/23 11:48:37;;;;;;;4.80;2.00;;;23.90;99.90;;;;;;4929149;28;20105;-43
2022/05/23 11:51:12;;;;;;;5.47;2.47;;;24.00;99.90;;;;;;4939129;28;20058;-43
2022/05/23 11:53:59;;;;;;;3.90;2.35;;;24.10;99.90;;;;;;4941282;28;20053;-43
2022/05/23 11:56:38;;;;;;;6.10;2.00;;;24.10;99.90;;;;;;4932297;28;20051;-43
2022/05/23 11:59:06;;;;;;;5.53;2.40;;;24.20;99.90;;;;;;4942928;28;20706;-43
2022/05/23 12:01:34;;;;;;;4.35;2.28;;;24.20;99.90;;;;;;4932220;28;20087;-42
2022/05/23 12:03:59;;;;;;;5.07;2.15;;;24.30;99.90;;;;;;4941137;28;20144;-42
2022/05/23 12:06:25;;;;;;;5.30;2.05;;;24.30;99.90;;;;;;4925544;28;20656;-43
2022/05/23 12:09:02;;;;;;;6.10;1.90;;;24.40;99.90;;;;;;4927022;28;20061;-42
2022/05/23 12:11:33;;;;;;;8.82;1.95;;;24.50;99.90;;;;;;4941146;28;20059;-42
2022/05/23 12:14:11;;;;;;;;;;;24.60;99.90;;;;;;4928436;28;20050;-43
2022/05/23 12:16:40;;;;;;;4.28;1.95;;;24.70;99.90;;;;;;4925102;28;19973;-42
2022/05/23 12:19:20;;;;;;;7.35;2.15;;;24.70;99.90;;;;;;4937439;28;20055;-42
2022/05/23 12:21:47;;;;;;;5.45;2.03;;;24.70;99.90;;;;;;4941634;28;20184;-43
2022/05/23 12:24:35;;;;;;;2.58;1.80;;;24.80;99.90;;;;;;4941277;28;20070;-42
2022/05/23 12:27:05;;;;;;;4.07;2.22;;;24.80;99.90;;;;;;4929412;28;20130;-42
2022/05/23 12:29:34;;;;;;;4.70;2.08;;;24.70;99.90;;;;;;4940352;28;20733;-43
2022/05/23 12:32:08;;;;;;;6.60;2.03;;;24.70;99.90;;;;;;4936193;28;20070;-43
2022/05/23 12:34:39;;;;;;;5.60;2.10;;;24.70;99.90;;;;;;4946100;28;21161;-42
2022/05/23 12:37:05;;;;;;;3.47;1.83;;;24.60;99.90;;;;;;4930604;28;20086;-42
2022/05/23 12:39:37;;;;;;;5.95;2.17;;;24.60;99.90;;;;;;4938801;28;20149;-42
2022/05/23 12:42:02;;;;;;;5.13;2.28;;;24.60;99.90;;;;;;4940809;28;20040;-46
2022/05/23 12:44:45;;;;;;;4.85;2.22;;;24.60;99.90;;;;;;4926024;28;20062;-43
2022/05/23 12:47:30;;;;;;;5.47;2.28;;;24.60;99.90;;;;;;4931251;28;20065;-42
2022/05/23 12:50:18;;;;;;;3.97;1.55;;;24.60;99.90;;;;;;4932572;28;20062;-42
2022/05/23 12:53:12;;;;;;;4.32;1.90;;;24.60;99.90;;;;;;4960529;28;20082;-43
2022/05/23 12:55:41;;;;;;;3.95;1.85;;;24.60;99.90;;;;;;4942890;28;20050;-42
2022/05/23 12:58:34;;;;;;;2.75;1.80;;;24.50;99.90;;;;;;4931115;28;20059;-42
2022/05/23 13:01:04;;;;;;;3.08;1.52;;;24.60;99.90;;;;;;4943164;28;20141;-43
2022/05/23 13:03:51;;;;;;;3.47;1.80;;;24.50;99.90;;;;;;4944468;28;20054;-43
2022/05/23 13:06:24;;;;;;;3.67;1.58;;;24.50;99.90;;;;;;4938342;28;20128;-43
2022/05/23 13:09:06;;;;;;;2.85;1.90;;;24.50;99.90;;;;;;4941112;28;20443;-43
2022/05/23 13:11:39;;;;;;;2.47;1.58;;;24.50;99.90;;;;;;4938743;28;20104;-43
2022/05/23 13:14:05;;;;;;;4.20;1.75;;;24.40;99.90;;;;;;4946048;28;20672;-43
2022/05/23 13:16:36;;;;;;;5.00;1.92;;;24.40;99.90;;;;;;4921010;28;20470;-43
2022/05/23 13:22:06;;;;;;;7.75;2.05;;;24.30;99.90;;;;;;4937828;28;20059;-43
2022/05/23 13:24:55;;;;;;;3.13;2.08;;;24.30;99.90;;;;;;4941479;28;20051;-43
2022/05/23 13:27:30;;;;;;;3.83;1.80;;;24.30;99.90;;;;;;4924020;28;20483;-43
2022/05/23 13:30:02;;;;;;;5.60;2.10;;;24.20;99.90;;;;;;4949982;28;20510;-42
2022/05/23 13:32:28;;;;;;;4.53;1.92;;;24.10;99.90;;;;;;4931270;28;20410;-43
2022/05/23 13:34:56;;;;;;;2.60;1.95;;;24.10;99.90;;;;;;4941763;28;20051;-43
2022/05/23 13:37:34;;;;;;;4.03;2.42;;;24.10;99.90;;;;;;4935108;28;20061;-43
2022/05/23 13:40:16;;;;;;;3.65;2.17;;;24.10;99.90;;;;;;4940586;28;20158;-43
2022/05/23 13:42:42;;;;;;;4.20;2.42;;;24.10;99.90;;;;;;4948939;28;20051;-43
2022/05/23 13:45:14;;;;;;;6.85;2.15;;;24.00;99.90;;;;;;4940228;28;20144;-43
2022/05/23 13:47:45;;;;;;;4.50;2.45;;;24.00;99.90;;;;;;4935060;28;20057;-43
2022/05/23 13:50:18;;;;;;;4.20;2.10;;;23.90;99.90;;;;;;4925341;28;21561;-43
2022/05/23 13:52:57;;;;;;;4.40;2.42;;;23.90;99.90;;;;;;4949098;28;20057;-43
2022/05/23 13:55:30;;;;;;;5.90;2.38;;;23.90;99.90;;;;;;4946843;28;20066;-43
2022/05/23 13:58:04;;;;;;;3.75;2.30;;;23.90;99.90;;;;;;4931086;28;20051;-43
2022/05/23 14:00:36;;;;;;;9.43;2.80;;;23.90;99.90;;;;;;4950366;28;20770;-43
2022/05/23 14:03:10;;;;;;;4.78;2.05;;;23.90;99.90;;;;;;4943984;28;20051;-43